Iliff, Colorado
Current Conditions -  °F | °C
As of 3:50 AM on Sunday 23 Nov 2014 (Local Time) from KSTK Reporting Station
Broken Clouds Broken Clouds  
Wind Chill: 34°   Ceiling: 12000
Heat Index: 41°   Visibility: 10mi
Dew Point: 28°   Wind: 13mph
Humidity: 61%   Direction: 360°N
Pressure: 29.66"   Gusts: NA
Location:  40.76°N, 103.07°W
Report Text: KSTK 231050Z AUTO 36011KT 10SM BKN120 05/M02 A2966 RMK AO2
Loading
Personal Weather Stations






























Interactive Weather Map New forecast layout! Learn more

10-Day Weather Forecast

Advertisements
Track Severe Weather on mobile